Pagrindinis puslapis
METAR-TAF:

METAR-TAF

Oro uostai :

Maragheh, Iranas

platuma: 37-20-55N, ilguma: 046-07-35E, Aukštis: 1340 m

Dabartinis oras

Ataskaita buvo paskelbta 55 minutes, ne 08:00 UTC
Vėjas 4 kt iš Vakarų
Temperatūra 23°C
Drėgmė 22%
Slėgis 1023 hPa
Matomumas 10 km arba daugiau
Mažai debesys ne aukštis 3800 ft

METAR: OITM 180800Z 28004KT 9999 FEW038 23/M00 Q1023

Laikas: 12:25 (08:55 UTC)


TAF: trūkstamas

Orai ataskaitas ir orų prognozės (METAR, TAF).

turimą stotys yra geltonos ir raudonos taškus žemėlapyje.

Perkelti pele per norėdami pamatyti stoties vardą.

Tada spustelėkite, norėdami matyti oro stebėjimo ir prognozės.

Norėdami pakeisti žemėlapį: spustelėkite ant žalios mygtukų su juodo kryžiaus žemyn,; žalią mygtuką su brūkšneliu, jei norite nutolinti; arba žalių rodyklių gretimoms žemėlapius.


METAR-TAF: